createdAt,value
2018-10-04T00:01:40.057Z,14.10
2018-10-04T00:04:08.118Z,13.10
2018-10-04T00:06:36.221Z,12.37
2018-10-04T00:09:05.212Z,11.97
2018-10-04T00:11:33.309Z,12.05
2018-10-04T00:14:01.392Z,11.45
2018-10-04T00:16:29.436Z,8.68
2018-10-04T00:18:57.521Z,15.00
2018-10-04T00:21:25.593Z,10.15
2018-10-04T00:23:53.673Z,10.00
2018-10-04T00:26:21.733Z,11.50
2018-10-04T00:28:49.804Z,9.33
2018-10-04T00:31:17.881Z,16.50
2018-10-04T00:33:45.985Z,11.30
2018-10-04T00:36:14.053Z,9.88
2018-10-04T00:38:42.109Z,10.90
2018-10-04T00:41:10.164Z,10.18
2018-10-04T00:43:38.213Z,11.20
2018-10-04T00:46:06.277Z,11.03
2018-10-04T00:48:34.389Z,10.00
2018-10-04T00:51:02.453Z,11.30
2018-10-04T00:53:30.524Z,17.30
2018-10-04T00:55:58.601Z,12.23
2018-10-04T00:58:26.729Z,14.75
2018-10-04T01:00:54.785Z,9.73
2018-10-04T01:03:23.775Z,11.53
2018-10-04T01:05:51.837Z,9.95
2018-10-04T01:08:19.913Z,12.70
2018-10-04T01:10:48.000Z,12.35
2018-10-04T01:13:16.056Z,13.43
2018-10-04T01:15:44.112Z,12.03
2018-10-04T01:18:23.782Z,10.90
2018-10-04T01:20:51.840Z,10.43
2018-10-04T01:23:19.895Z,11.50
2018-10-04T01:25:47.986Z,9.80
2018-10-04T01:28:16.045Z,10.08
2018-10-04T01:30:44.133Z,13.53
2018-10-04T01:33:12.190Z,11.37
2018-10-04T01:35:40.241Z,9.25
2018-10-04T01:38:08.316Z,13.43
2018-10-04T01:40:36.365Z,10.85
2018-10-04T01:43:09.981Z,11.85
2018-10-04T01:45:38.048Z,10.38
2018-10-04T01:48:06.130Z,11.53
2018-10-04T01:50:34.205Z,13.50
2018-10-04T01:53:02.309Z,11.20
2018-10-04T01:55:30.369Z,10.28
2018-10-04T01:57:58.413Z,14.15
2018-10-04T02:00:26.468Z,9.13
2018-10-04T02:02:54.557Z,11.73
2018-10-04T02:05:23.476Z,12.57
2018-10-04T02:07:51.810Z,11.45
2018-10-04T02:10:19.861Z,10.47
2018-10-04T02:12:47.933Z,12.85
2018-10-04T02:15:16.030Z,9.68
2018-10-04T02:17:44.089Z,13.50
2018-10-04T02:20:12.230Z,13.53
2018-10-04T02:22:40.281Z,6.53
2018-10-04T02:25:08.365Z,9.85
2018-10-04T02:27:36.432Z,13.00
2018-10-04T02:30:04.514Z,9.40
2018-10-04T02:32:32.577Z,12.68
2018-10-04T02:35:00.649Z,12.30
2018-10-04T02:37:28.720Z,10.15
2018-10-04T02:39:56.788Z,8.18
2018-10-04T02:42:24.889Z,9.08
2018-10-04T02:44:52.937Z,12.78
2018-10-04T02:47:21.040Z,11.43
2018-10-04T02:49:49.100Z,9.30
2018-10-04T02:52:17.149Z,11.22
2018-10-04T02:54:50.524Z,12.28
2018-10-04T02:57:18.617Z,11.73
2018-10-04T02:59:46.694Z,12.25
2018-10-04T03:02:14.773Z,8.90
2018-10-04T03:04:42.849Z,13.25
2018-10-04T03:07:10.913Z,12.53
2018-10-04T03:09:38.998Z,14.00
2018-10-04T03:12:07.094Z,12.58
2018-10-04T03:14:35.162Z,12.68
2018-10-04T03:17:03.229Z,11.48
2018-10-04T03:19:31.304Z,12.35
2018-10-04T03:21:59.389Z,12.10
2018-10-04T03:24:27.459Z,11.50
2018-10-04T03:26:55.537Z,12.23
2018-10-04T03:29:23.612Z,11.03
2018-10-04T03:31:51.689Z,9.20
2018-10-04T03:34:19.790Z,12.45
2018-10-04T03:36:47.846Z,12.20
2018-10-04T03:39:15.936Z,11.20
2018-10-04T03:41:43.996Z,10.90
2018-10-04T03:44:12.146Z,10.40
2018-10-04T03:46:40.157Z,11.80
2018-10-04T03:49:08.220Z,11.97
2018-10-04T03:51:36.261Z,16.73
2018-10-04T03:54:04.333Z,13.13
2018-10-04T03:56:32.422Z,13.23
2018-10-04T03:59:00.497Z,13.08
2018-10-04T04:01:28.573Z,15.30
2018-10-04T04:03:56.692Z,14.05
2018-10-04T04:06:24.712Z,12.43
2018-10-04T04:08:52.793Z,14.70
2018-10-04T04:11:20.891Z,14.30
2018-10-04T04:13:48.956Z,13.15
2018-10-04T04:16:17.036Z,11.63
2018-10-04T04:18:45.125Z,12.98
2018-10-04T04:21:13.189Z,10.30
2018-10-04T04:23:45.876Z,13.68
2018-10-04T04:26:13.953Z,15.20
2018-10-04T04:28:42.021Z,10.98
2018-10-04T04:31:10.093Z,11.53
2018-10-04T04:33:38.167Z,13.32
2018-10-04T04:36:06.272Z,11.30
2018-10-04T04:38:34.365Z,13.05
2018-10-04T04:41:02.545Z,14.30
2018-10-04T04:43:30.518Z,12.65
2018-10-04T04:45:58.733Z,12.35
2018-10-04T04:48:26.800Z,15.00
2018-10-04T04:50:54.974Z,15.70
2018-10-04T04:53:30.462Z,13.57
2018-10-04T04:55:58.553Z,14.55
2018-10-04T04:58:26.622Z,14.28
2018-10-04T05:00:54.715Z,12.45
2018-10-04T05:03:22.796Z,12.30
2018-10-04T05:05:50.888Z,13.15
2018-10-04T05:08:18.953Z,15.75
2018-10-04T05:10:47.013Z,14.43
2018-10-04T05:13:15.111Z,15.88
2018-10-04T05:15:43.202Z,12.73
2018-10-04T05:18:11.352Z,15.83
2018-10-04T05:20:39.377Z,15.40
2018-10-04T05:23:07.468Z,14.68
2018-10-04T05:25:35.557Z,14.33
2018-10-04T05:28:03.638Z,13.38
2018-10-04T05:30:31.722Z,18.98
2018-10-04T05:32:59.785Z,16.52
2018-10-04T05:35:28.502Z,13.32
2018-10-04T05:37:56.600Z,19.27
2018-10-04T05:40:24.685Z,16.30
2018-10-04T05:42:52.761Z,13.53
2018-10-04T05:45:20.876Z,12.82
2018-10-04T05:47:48.908Z,12.80
2018-10-04T05:50:16.969Z,19.02
2018-10-04T05:52:45.046Z,17.02
2018-10-04T05:55:13.129Z,16.60
2018-10-04T05:57:41.217Z,18.42
2018-10-04T06:00:20.797Z,16.02
2018-10-04T06:02:48.867Z,20.40
2018-10-04T06:05:17.011Z,18.50
2018-10-04T06:07:45.049Z,18.23
2018-10-04T06:10:13.109Z,19.53
2018-10-04T06:12:41.201Z,21.15
2018-10-04T06:15:09.356Z,24.18
2018-10-04T06:17:37.365Z,23.18
2018-10-04T06:20:05.468Z,24.32
2018-10-04T06:22:33.538Z,19.60
2018-10-04T06:25:01.620Z,19.82
2018-10-04T06:27:29.711Z,21.23
2018-10-04T06:29:57.793Z,25.05
2018-10-04T06:32:25.879Z,26.07
2018-10-04T06:34:54.012Z,23.00
2018-10-04T06:37:22.049Z,28.05
2018-10-04T06:39:50.129Z,26.25
2018-10-04T06:42:18.210Z,26.67
2018-10-04T06:44:46.514Z,30.60
2018-10-04T06:47:14.578Z,32.48
2018-10-04T06:49:42.641Z,33.50
2018-10-04T06:52:10.740Z,32.98
2018-10-04T06:54:38.808Z,35.13
2018-10-04T06:57:06.928Z,35.68
2018-10-04T06:59:34.997Z,34.50
2018-10-04T07:02:03.066Z,29.23
2018-10-04T07:04:31.150Z,32.83
2018-10-04T07:06:59.226Z,28.92
2018-10-04T07:09:27.553Z,34.15
2018-10-04T07:11:55.637Z,33.73
2018-10-04T07:14:24.018Z,32.88
2018-10-04T07:16:52.079Z,31.83
2018-10-04T07:19:20.161Z,33.85
2018-10-04T07:21:48.232Z,36.40
2018-10-04T07:24:16.378Z,33.63
2018-10-04T07:26:44.440Z,35.68
2018-10-04T07:29:12.533Z,32.83
2018-10-04T07:31:40.683Z,33.75
2018-10-04T07:34:08.752Z,33.23
2018-10-04T07:36:36.889Z,35.03
2018-10-04T07:39:07.085Z,37.23
2018-10-04T07:41:35.161Z,35.88
2018-10-04T07:44:03.277Z,38.20
2018-10-04T07:46:31.357Z,36.17
2018-10-04T07:48:59.437Z,34.58
2018-10-04T07:51:27.988Z,34.35
2018-10-04T07:53:56.073Z,33.10
2018-10-04T07:56:24.152Z,34.83
2018-10-04T07:58:52.264Z,33.95
2018-10-04T08:01:20.344Z,34.00
2018-10-04T08:03:48.421Z,35.17
2018-10-04T08:06:16.719Z,34.35
2018-10-04T08:08:44.605Z,34.77
2018-10-04T08:11:12.673Z,33.65
2018-10-04T08:13:40.781Z,34.00
2018-10-04T08:16:09.141Z,34.27
2018-10-04T08:18:37.255Z,35.35
2018-10-04T08:21:05.341Z,36.50
2018-10-04T08:23:33.376Z,37.08
2018-10-04T08:26:01.469Z,36.93
2018-10-04T08:28:29.593Z,35.70
2018-10-04T08:30:57.656Z,35.55
2018-10-04T08:33:25.750Z,33.55
2018-10-04T08:35:53.824Z,35.37
2018-10-04T08:38:21.893Z,34.45
2018-10-04T08:40:49.964Z,35.17
2018-10-04T08:43:18.094Z,35.20
2018-10-04T08:45:46.173Z,35.65
2018-10-04T08:48:14.293Z,34.83
2018-10-04T08:50:42.337Z,34.90
2018-10-04T08:53:10.396Z,36.30
2018-10-04T08:55:39.075Z,35.80
2018-10-04T08:58:07.238Z,37.30
2018-10-04T09:00:35.337Z,35.88
2018-10-04T09:03:05.028Z,36.30
2018-10-04T09:05:33.618Z,35.15
2018-10-04T09:08:01.697Z,35.50
2018-10-04T09:10:29.839Z,35.90
2018-10-04T09:12:57.912Z,33.35
2018-10-04T09:15:26.011Z,36.58
2018-10-04T09:17:54.070Z,42.75
2018-10-04T09:20:22.953Z,34.78
2018-10-04T09:22:51.033Z,35.43
2018-10-04T09:25:19.256Z,36.55
2018-10-04T09:27:47.378Z,35.30
2018-10-04T09:30:20.898Z,35.08
2018-10-04T09:32:48.953Z,34.08
2018-10-04T09:35:17.057Z,34.73
2018-10-04T09:37:45.136Z,35.00
2018-10-04T09:40:13.216Z,35.73
2018-10-04T09:42:42.152Z,37.15
2018-10-04T09:45:14.037Z,37.95
2018-10-04T09:47:42.109Z,38.50
2018-10-04T09:50:10.194Z,37.90
2018-10-04T09:52:39.540Z,37.95
2018-10-04T09:55:14.260Z,39.80
2018-10-04T09:57:43.657Z,38.73
2018-10-04T10:00:17.829Z,42.05
2018-10-04T10:02:51.294Z,42.05
2018-10-04T10:05:19.725Z,43.65
2018-10-04T10:07:48.745Z,45.03
2018-10-04T10:10:16.801Z,41.98
2018-10-04T10:12:45.708Z,44.20
2018-10-04T10:15:14.101Z,43.90
2018-10-04T10:17:42.364Z,43.23
2018-10-04T10:20:10.846Z,41.95
2018-10-04T10:22:38.897Z,40.92
2018-10-04T10:25:06.982Z,40.48
2018-10-04T10:27:35.053Z,39.60
2018-10-04T10:30:03.116Z,38.75
2018-10-04T10:32:31.198Z,40.00
2018-10-04T10:34:59.900Z,40.35
2018-10-04T10:37:28.013Z,39.75
2018-10-04T10:39:56.104Z,39.40
2018-10-04T10:42:24.193Z,39.08
2018-10-04T10:44:52.287Z,39.00
2018-10-04T10:47:20.357Z,38.75
2018-10-04T10:49:48.746Z,39.80
2018-10-04T10:52:16.869Z,41.77
2018-10-04T10:54:44.944Z,39.95
2018-10-04T10:57:13.039Z,46.35
2018-10-04T10:59:41.137Z,40.28
2018-10-04T11:02:09.212Z,41.73
2018-10-04T11:04:37.268Z,39.92
2018-10-04T11:07:05.392Z,42.55
2018-10-04T11:09:33.716Z,39.67
2018-10-04T11:12:01.873Z,39.10
2018-10-04T11:14:29.948Z,40.38
2018-10-04T11:16:58.104Z,40.53
2018-10-04T11:19:26.104Z,38.15
2018-10-04T11:21:54.221Z,39.70
2018-10-04T11:24:22.351Z,40.50
2018-10-04T11:26:50.403Z,39.63
2018-10-04T11:29:18.486Z,39.15
2018-10-04T11:31:46.557Z,39.38
2018-10-04T11:34:14.646Z,38.50
2018-10-04T11:36:43.905Z,38.65
2018-10-04T11:39:12.012Z,39.27
2018-10-04T11:41:40.769Z,41.00
2018-10-04T11:44:13.756Z,42.08
2018-10-04T11:46:42.137Z,41.92
2018-10-04T11:49:10.230Z,43.20
2018-10-04T11:51:38.309Z,41.90
2018-10-04T11:54:06.525Z,42.00
2018-10-04T11:56:34.666Z,38.20
2018-10-04T11:59:02.761Z,37.75
2018-10-04T12:01:30.900Z,36.90
2018-10-04T12:03:58.982Z,34.78
2018-10-04T12:06:27.093Z,34.05
2018-10-04T12:08:55.174Z,34.10
2018-10-04T12:11:23.255Z,31.77
2018-10-04T12:13:51.369Z,32.50
2018-10-04T12:16:19.453Z,32.50
2018-10-04T12:18:47.535Z,33.63
2018-10-04T12:21:15.596Z,34.15
2018-10-04T12:23:43.684Z,34.75
2018-10-04T12:26:11.753Z,34.80
2018-10-04T12:28:39.854Z,34.53
2018-10-04T12:31:08.018Z,33.42
2018-10-04T12:33:36.058Z,31.42
2018-10-04T12:36:04.222Z,33.80
2018-10-04T12:38:32.288Z,33.92
2018-10-04T12:41:00.437Z,33.08
2018-10-04T12:43:28.512Z,31.07
2018-10-04T12:45:56.608Z,30.77
2018-10-04T12:48:24.728Z,28.40
2018-10-04T12:50:52.817Z,28.40
2018-10-04T12:53:20.925Z,25.70
2018-10-04T12:55:49.018Z,23.95
2018-10-04T12:58:17.137Z,24.37
2018-10-04T13:00:45.226Z,23.60
2018-10-04T13:03:13.653Z,23.25
2018-10-04T13:05:41.815Z,21.57
2018-10-04T13:08:09.890Z,24.80
2018-10-04T13:10:37.950Z,23.32
2018-10-04T13:13:06.420Z,18.02
2018-10-04T13:15:34.485Z,15.10
2018-10-04T13:18:02.570Z,14.00
2018-10-04T13:20:30.748Z,13.90
2018-10-04T13:22:59.652Z,13.18
2018-10-04T13:25:27.720Z,11.78
2018-10-04T13:27:55.838Z,13.18
2018-10-04T13:30:23.865Z,11.88
2018-10-04T13:32:51.952Z,12.68
2018-10-04T13:35:20.045Z,10.20
2018-10-04T13:37:48.133Z,10.88
2018-10-04T13:40:16.196Z,10.90
2018-10-04T13:42:44.318Z,10.28
2018-10-04T13:45:12.431Z,10.60
2018-10-04T13:47:40.461Z,11.03
2018-10-04T13:50:08.529Z,10.53
2018-10-04T13:52:36.614Z,11.28
2018-10-04T13:55:04.792Z,10.53
2018-10-04T13:57:32.901Z,10.00
2018-10-04T14:00:01.024Z,10.23
2018-10-04T14:02:29.165Z,9.78
2018-10-04T14:04:57.245Z,9.93
2018-10-04T14:07:25.374Z,9.67
2018-10-04T14:09:53.450Z,9.90
2018-10-04T14:12:21.526Z,11.03
2018-10-04T14:14:49.728Z,11.60
2018-10-04T14:17:17.824Z,12.33
2018-10-04T14:19:45.888Z,11.90
2018-10-04T14:22:13.973Z,13.90
2018-10-04T14:24:42.058Z,14.75
2018-10-04T14:27:10.136Z,15.53
2018-10-04T14:29:38.223Z,15.72
2018-10-04T14:32:06.329Z,16.12
2018-10-04T14:34:34.397Z,16.32
2018-10-04T14:37:02.900Z,16.75
2018-10-04T14:39:30.994Z,18.62
2018-10-04T14:41:59.066Z,18.07
2018-10-04T14:44:27.627Z,18.80
2018-10-04T14:46:55.747Z,18.30
2018-10-04T14:49:23.901Z,19.25
2018-10-04T14:51:51.973Z,21.15
2018-10-04T14:54:20.040Z,20.97
2018-10-04T14:56:48.125Z,22.55
2018-10-04T14:59:16.191Z,22.32
2018-10-04T15:01:44.270Z,21.37
2018-10-04T15:04:12.349Z,23.65
2018-10-04T15:06:40.434Z,23.20
2018-10-04T15:09:10.009Z,23.75
2018-10-04T15:11:38.397Z,23.65
2018-10-04T15:14:06.353Z,24.43
2018-10-04T15:16:34.450Z,24.10
2018-10-04T15:19:02.521Z,24.55
2018-10-04T15:21:30.613Z,23.90
2018-10-04T15:23:58.722Z,24.30
2018-10-04T15:26:26.977Z,23.57
2018-10-04T15:28:55.056Z,23.85
2018-10-04T15:31:23.151Z,22.90
2018-10-04T15:33:51.223Z,23.35
2018-10-04T15:36:19.289Z,23.90
2018-10-04T15:38:47.621Z,22.48
2018-10-04T15:41:15.701Z,22.32
2018-10-04T15:43:43.768Z,25.08
2018-10-04T15:46:11.864Z,30.08
2018-10-04T15:48:39.946Z,25.68
2018-10-04T15:51:08.041Z,27.25
2018-10-04T15:53:36.146Z,25.72
2018-10-04T15:56:04.297Z,25.87
2018-10-04T15:58:42.026Z,26.23
2018-10-04T16:01:15.019Z,27.87
2018-10-04T16:03:45.096Z,27.70
2018-10-04T16:06:13.213Z,28.07
2018-10-04T16:08:41.313Z,29.15
2018-10-04T16:11:09.376Z,29.47
2018-10-04T16:13:37.512Z,29.07
2018-10-04T16:16:05.684Z,29.45
2018-10-04T16:18:33.765Z,30.32
2018-10-04T16:21:01.848Z,29.27
2018-10-04T16:23:29.917Z,29.85
2018-10-04T16:25:58.081Z,31.27
2018-10-04T16:28:26.172Z,30.72
2018-10-04T16:30:54.246Z,31.90
2018-10-04T16:33:22.340Z,32.60
2018-10-04T16:35:50.449Z,31.90
2018-10-04T16:38:18.595Z,34.07
2018-10-04T16:40:46.631Z,33.38
2018-10-04T16:43:14.711Z,33.23
2018-10-04T16:45:42.786Z,32.50
2018-10-04T16:48:10.849Z,35.50
2018-10-04T16:50:38.921Z,35.45
2018-10-04T16:53:07.059Z,35.63
2018-10-04T16:55:35.138Z,35.68
2018-10-04T16:58:03.229Z,38.10
2018-10-04T17:00:31.295Z,37.48
2018-10-04T17:02:59.445Z,39.42
2018-10-04T17:05:27.729Z,39.08
2018-10-04T17:07:55.808Z,38.50
2018-10-04T17:10:23.885Z,41.98
2018-10-04T17:12:51.960Z,41.10
2018-10-04T17:15:20.054Z,43.38
2018-10-04T17:17:48.148Z,46.02
2018-10-04T17:20:16.248Z,43.45
2018-10-04T17:22:44.326Z,46.60
2018-10-04T17:25:12.410Z,47.17
2018-10-04T17:27:40.485Z,51.58
2018-10-04T17:30:08.593Z,46.65
2018-10-04T17:32:37.044Z,42.30
2018-10-04T17:35:05.226Z,43.08
2018-10-04T17:37:33.308Z,41.18
2018-10-04T17:40:01.377Z,41.02
2018-10-04T17:42:29.448Z,37.80
2018-10-04T17:44:57.513Z,37.88
2018-10-04T17:47:25.625Z,37.30
2018-10-04T17:49:53.692Z,35.52
2018-10-04T17:52:21.761Z,36.40
2018-10-04T17:54:49.823Z,34.40
2018-10-04T17:57:17.928Z,35.85
2018-10-04T17:59:45.997Z,34.75
2018-10-04T18:02:14.068Z,34.48
2018-10-04T18:04:42.555Z,34.53
2018-10-04T18:07:10.606Z,35.93
2018-10-04T18:09:38.678Z,35.05
2018-10-04T18:12:06.773Z,33.48
2018-10-04T18:14:34.865Z,32.60
2018-10-04T18:17:03.221Z,32.07
2018-10-04T18:19:31.290Z,31.40
2018-10-04T18:21:59.373Z,33.67
2018-10-04T18:24:27.457Z,30.52
2018-10-04T18:26:55.517Z,33.53
2018-10-04T18:29:23.615Z,32.83
2018-10-04T18:31:51.970Z,32.30
2018-10-04T18:34:20.070Z,31.17
2018-10-04T18:36:48.165Z,28.90
2018-10-04T18:39:16.323Z,30.25
2018-10-04T18:41:44.396Z,29.85
2018-10-04T18:44:13.062Z,30.68
2018-10-04T18:46:41.133Z,30.05
2018-10-04T18:49:09.297Z,27.95
2018-10-04T18:51:37.414Z,27.40
2018-10-04T18:54:05.485Z,28.42
2018-10-04T18:56:34.202Z,26.40
2018-10-04T18:59:02.290Z,27.93
2018-10-04T19:01:30.774Z,28.40
2018-10-04T19:03:58.826Z,28.50
2018-10-04T19:06:26.952Z,26.45
2018-10-04T19:08:55.023Z,28.32
2018-10-04T19:11:23.112Z,29.13
2018-10-04T19:13:51.216Z,29.40
2018-10-04T19:16:19.317Z,27.00
2018-10-04T19:18:47.391Z,27.55
2018-10-04T19:21:15.485Z,26.45
2018-10-04T19:23:43.565Z,26.23
2018-10-04T19:26:11.662Z,26.33
2018-10-04T19:28:39.726Z,26.42
2018-10-04T19:31:07.997Z,26.62
2018-10-04T19:33:36.085Z,25.50
2018-10-04T19:36:04.186Z,27.22
2018-10-04T19:38:32.311Z,26.55
2018-10-04T19:41:00.405Z,27.45
2018-10-04T19:43:28.505Z,27.15
2018-10-04T19:45:56.611Z,26.70
2018-10-04T19:48:24.704Z,26.97
2018-10-04T19:50:52.812Z,26.35
2018-10-04T19:53:20.893Z,26.87
2018-10-04T19:55:48.956Z,25.90
2018-10-04T19:58:17.192Z,26.77
2018-10-04T20:00:45.292Z,25.65
2018-10-04T20:03:13.416Z,25.62
2018-10-04T20:05:41.810Z,25.75
2018-10-04T20:08:09.894Z,24.95
2018-10-04T20:10:37.982Z,26.33
2018-10-04T20:13:06.308Z,26.07
2018-10-04T20:15:34.361Z,25.20
2018-10-04T20:18:02.478Z,24.87
2018-10-04T20:20:30.525Z,24.82
2018-10-04T20:22:58.613Z,24.47
2018-10-04T20:25:26.697Z,25.40
2018-10-04T20:27:54.808Z,23.83
2018-10-04T20:30:22.954Z,25.02
2018-10-04T20:32:51.012Z,24.67
2018-10-04T20:35:19.083Z,24.37
2018-10-04T20:37:47.144Z,24.02
2018-10-04T20:40:15.217Z,24.50
2018-10-04T20:42:43.300Z,26.10
2018-10-04T20:45:11.474Z,24.77
2018-10-04T20:47:39.572Z,26.45
2018-10-04T20:50:07.657Z,26.68
2018-10-04T20:52:35.802Z,26.40
2018-10-04T20:55:03.817Z,27.35
2018-10-04T20:57:31.952Z,26.52
2018-10-04T21:00:00.016Z,26.30
2018-10-04T21:02:28.115Z,25.92
2018-10-04T21:04:56.167Z,25.97
2018-10-04T21:07:24.277Z,26.82
2018-10-04T21:09:52.348Z,26.52
2018-10-04T21:12:20.429Z,25.32
2018-10-04T21:14:48.529Z,27.22
2018-10-04T21:17:16.605Z,25.88
2018-10-04T21:19:44.686Z,25.70
2018-10-04T21:22:12.776Z,27.17
2018-10-04T21:24:40.835Z,25.23
2018-10-04T21:27:08.929Z,27.13
2018-10-04T21:29:37.050Z,26.25
2018-10-04T21:32:05.069Z,27.70
2018-10-04T21:34:33.238Z,26.97
2018-10-04T21:37:01.328Z,27.47
2018-10-04T21:39:29.411Z,26.52
2018-10-04T21:41:57.499Z,26.07
2018-10-04T21:44:25.585Z,26.00
2018-10-04T21:46:53.674Z,25.90
2018-10-04T21:49:21.732Z,28.05
2018-10-04T21:51:49.812Z,26.10
2018-10-04T21:54:17.886Z,27.42
2018-10-04T21:56:45.954Z,26.70
2018-10-04T21:59:14.024Z,27.45
2018-10-04T22:01:42.117Z,27.67
2018-10-04T22:04:10.185Z,27.02
2018-10-04T22:06:38.242Z,28.45
2018-10-04T22:09:07.869Z,26.07
2018-10-04T22:11:35.938Z,26.62
2018-10-04T22:14:04.020Z,28.05
2018-10-04T22:16:32.087Z,26.97
2018-10-04T22:19:00.147Z,25.93
2018-10-04T22:21:28.209Z,26.85
2018-10-04T22:23:56.301Z,25.65
2018-10-04T22:26:24.370Z,27.65
2018-10-04T22:28:52.455Z,25.30
2018-10-04T22:31:20.523Z,26.73
2018-10-04T22:33:48.613Z,26.40
2018-10-04T22:36:16.688Z,26.40
2018-10-04T22:38:44.741Z,25.80
2018-10-04T22:41:12.839Z,32.10
2018-10-04T22:43:40.905Z,25.68
2018-10-04T22:46:09.091Z,24.90
2018-10-04T22:48:37.384Z,25.68
2018-10-04T22:51:05.982Z,25.70
2018-10-04T22:53:34.089Z,25.00
2018-10-04T22:56:02.161Z,25.15
2018-10-04T22:58:30.230Z,25.10
2018-10-04T23:00:58.300Z,24.12
2018-10-04T23:03:26.381Z,23.75
2018-10-04T23:05:54.461Z,24.82
2018-10-04T23:08:22.580Z,24.50
2018-10-04T23:10:50.656Z,24.45
2018-10-04T23:13:18.784Z,24.47
2018-10-04T23:15:46.817Z,24.00
2018-10-04T23:18:14.889Z,24.37
2018-10-04T23:20:42.990Z,24.10
2018-10-04T23:23:11.051Z,25.27
2018-10-04T23:25:39.133Z,24.10
2018-10-04T23:28:07.209Z,23.98
2018-10-04T23:30:35.261Z,25.00
2018-10-04T23:33:03.349Z,25.02
2018-10-04T23:35:31.459Z,25.37
2018-10-04T23:37:59.525Z,25.72
2018-10-04T23:40:27.583Z,25.97
2018-10-04T23:42:55.640Z,25.95
2018-10-04T23:45:23.704Z,24.43
2018-10-04T23:47:51.781Z,23.83
2018-10-04T23:50:19.844Z,25.23
2018-10-04T23:52:47.904Z,25.57
2018-10-04T23:55:15.976Z,25.95
2018-10-04T23:57:44.105Z,25.15
